Time;durP1;ratioP1;P1;durP2;ratioP2;P2;SDS_P1;SDS_P2;PMS_P1;PMS_P2;Temp;Humidity;BMP_temperature;BMP_pressure;BME280_temperature;BME280_humidity;BME280_pressure;Samples;Min_cycle;Max_cycle;Signal;HPM_P1;HPM_P2
2022/05/19 00:01:54;;;;;;;4.70;3.28;;;18.40;99.90;;;;;;4665544;28;9999726;-88
2022/05/19 00:04:20;;;;;;;3.47;3.00;;;18.30;99.90;;;;;;5009393;28;20200;-88
2022/05/19 00:06:46;;;;;;;3.20;2.90;;;18.30;99.90;;;;;;5012511;28;20410;-88
2022/05/19 00:09:12;;;;;;;3.88;3.17;;;18.30;99.90;;;;;;5012914;28;20041;-88
2022/05/19 00:11:38;;;;;;;6.38;3.70;;;18.30;99.90;;;;;;5017805;28;20026;-88
2022/05/19 00:14:03;;;;;;;4.88;3.33;;;18.30;99.90;;;;;;5016188;28;20034;-89
2022/05/19 00:16:29;;;;;;;5.35;3.05;;;18.30;99.90;;;;;;5017102;28;20359;-90
2022/05/19 00:18:55;;;;;;;3.40;3.00;;;18.30;99.90;;;;;;5014657;28;20030;-88
2022/05/19 00:21:21;;;;;;;3.53;3.22;;;18.40;99.90;;;;;;5013349;28;20034;-88
2022/05/19 00:23:47;;;;;;;5.53;3.30;;;18.30;99.90;;;;;;5017617;28;20044;-88
2022/05/19 00:26:13;;;;;;;3.22;2.92;;;18.30;99.90;;;;;;5017577;28;20440;-88
2022/05/19 00:28:38;;;;;;;3.63;3.33;;;18.30;99.90;;;;;;5013138;28;20287;-89
2022/05/19 00:31:04;;;;;;;3.75;3.28;;;18.20;99.90;;;;;;5017947;28;20041;-88
2022/05/19 00:33:30;;;;;;;4.00;3.42;;;18.20;99.90;;;;;;5014442;28;20040;-88
2022/05/19 00:35:55;;;;;;;4.53;3.35;;;18.20;99.90;;;;;;5016097;28;20250;-89
2022/05/19 00:38:21;;;;;;;3.55;3.05;;;18.20;99.90;;;;;;5015342;28;20503;-89
2022/05/19 00:40:50;;;;;;;4.72;3.30;;;18.20;99.90;;;;;;5010068;28;20030;-89
2022/05/19 00:43:25;;;;;;;3.63;3.13;;;18.10;99.90;;;;;;5001937;28;20106;-89
2022/05/19 00:46:03;;;;;;;4.28;3.25;;;18.10;99.90;;;;;;5003762;28;20251;-87
2022/05/19 00:48:43;;;;;;;3.92;3.33;;;18.00;99.90;;;;;;5001056;28;20037;-88
2022/05/19 00:51:10;;;;;;;3.65;3.35;;;17.90;99.90;;;;;;5001521;28;20033;-89
2022/05/19 00:53:46;;;;;;;3.83;3.40;;;17.90;99.90;;;;;;5003989;28;20108;-89
2022/05/19 00:56:17;;;;;;;3.40;3.05;;;17.80;99.90;;;;;;5007623;28;20045;-89
2022/05/19 00:58:53;;;;;;;5.20;2.97;;;17.80;99.90;;;;;;5021414;28;20029;-89
2022/05/19 01:01:19;;;;;;;3.83;3.38;;;17.80;99.90;;;;;;5006889;28;20382;-88
2022/05/19 01:03:51;;;;;;;3.67;3.22;;;17.70;99.90;;;;;;5008023;28;20068;-89
2022/05/19 01:06:18;;;;;;;3.60;3.17;;;17.70;99.90;;;;;;5002106;28;20555;-90
2022/05/19 01:09:06;;;;;;;3.95;3.33;;;17.60;99.90;;;;;;5001611;28;20386;-88
2022/05/19 01:11:32;;;;;;;3.25;2.95;;;17.60;99.90;;;;;;5007905;28;20049;-88
2022/05/19 01:13:58;;;;;;;11.10;3.22;;;17.60;99.90;;;;;;5007060;28;20312;-89
2022/05/19 01:16:24;;;;;;;3.30;3.00;;;17.50;99.90;;;;;;5007937;28;20477;-90
2022/05/19 01:18:50;;;;;;;4.22;3.47;;;17.50;99.90;;;;;;5005325;28;20017;-90
2022/05/19 01:21:19;;;;;;;3.88;3.45;;;17.40;99.90;;;;;;5002852;28;20044;-90
2022/05/19 01:24:02;;;;;;;5.03;3.90;;;17.40;99.90;;;;;;5006298;28;20045;-90
2022/05/19 01:26:28;;;;;;;4.18;3.70;;;17.40;99.90;;;;;;5005618;28;20037;-90
2022/05/19 01:28:57;;;;;;;4.43;3.53;;;17.40;99.90;;;;;;5004725;28;20105;-89
2022/05/19 01:31:33;;;;;;;4.60;3.60;;;17.40;99.90;;;;;;5006309;28;20048;-88
2022/05/19 01:34:00;;;;;;;4.22;3.83;;;17.30;99.90;;;;;;5006891;28;20494;-89
2022/05/19 01:36:26;;;;;;;5.38;4.13;;;17.30;99.90;;;;;;5006204;28;20532;-90
2022/05/19 01:38:59;;;;;;;3.85;3.50;;;17.30;99.90;;;;;;5004903;28;20109;-89
2022/05/19 01:41:44;;;;;;;4.07;3.67;;;17.30;99.90;;;;;;5002871;28;20454;-90
2022/05/19 01:44:30;;;;;;;4.07;3.53;;;17.20;99.90;;;;;;5005688;28;20095;-90
2022/05/19 01:47:09;;;;;;;4.07;3.67;;;17.20;99.90;;;;;;5007307;28;20146;-89
2022/05/19 01:49:57;;;;;;;4.30;3.90;;;17.20;99.90;;;;;;5003343;28;20564;-91
2022/05/19 01:52:36;;;;;;;4.25;3.85;;;17.20;99.90;;;;;;5004828;28;20044;-92
2022/05/19 01:55:08;;;;;;;4.65;3.80;;;17.20;99.90;;;;;;5004313;28;20561;-92
2022/05/19 01:58:02;;;;;;;4.82;4.18;;;17.10;99.90;;;;;;5009347;28;20042;-92
2022/05/19 02:00:30;;;;;;;4.95;4.10;;;17.10;99.90;;;;;;4999571;28;20034;-92
2022/05/19 02:03:07;;;;;;;4.78;4.18;;;17.10;99.90;;;;;;5006004;28;20037;-91
2022/05/19 02:06:04;;;;;;;4.40;3.80;;;17.10;99.90;;;;;;5004669;28;20033;-91
2022/05/19 02:08:37;;;;;;;4.85;3.92;;;17.10;99.90;;;;;;5004452;28;20508;-91
2022/05/19 02:11:09;;;;;;;4.40;4.00;;;17.00;99.90;;;;;;5004937;28;20037;-90
2022/05/19 02:13:35;;;;;;;4.95;3.83;;;16.90;99.90;;;;;;5009781;28;20033;-89
2022/05/19 02:16:04;;;;;;;4.00;3.70;;;16.90;99.90;;;;;;5005487;28;20102;-89
2022/05/19 02:18:30;;;;;;;4.10;3.70;;;16.90;99.90;;;;;;5004280;28;20117;-91
2022/05/19 02:21:00;;;;;;;6.30;3.83;;;16.90;99.90;;;;;;5005757;28;20037;-90
2022/05/19 02:23:26;;;;;;;4.72;4.32;;;16.80;99.90;;;;;;5008462;28;20043;-90
2022/05/19 02:25:53;;;;;;;4.47;4.07;;;16.80;99.90;;;;;;5007123;28;20038;-91
2022/05/19 02:28:27;;;;;;;5.18;4.45;;;16.90;99.90;;;;;;5015050;28;20068;-90
2022/05/19 02:30:55;;;;;;;6.80;4.78;;;16.90;99.90;;;;;;5023392;28;20029;-89
2022/05/19 02:33:21;;;;;;;5.82;4.28;;;17.00;99.90;;;;;;5026644;28;20083;-90
2022/05/19 02:35:47;;;;;;;4.90;4.40;;;17.00;99.90;;;;;;5024312;28;20033;-91
2022/05/19 02:38:14;;;;;;;5.57;4.57;;;17.00;99.90;;;;;;5024550;28;20033;-89
2022/05/19 02:40:41;;;;;;;6.00;4.53;;;17.10;99.90;;;;;;5025475;28;20091;-89
2022/05/19 02:43:08;;;;;;;6.57;4.82;;;17.00;99.90;;;;;;5019815;28;20029;-90
2022/05/19 02:45:34;;;;;;;5.68;4.70;;;16.90;99.90;;;;;;5025889;28;20495;-90
2022/05/19 02:48:00;;;;;;;5.82;4.70;;;16.80;99.90;;;;;;5025660;28;20070;-90
2022/05/19 02:50:26;;;;;;;7.13;4.60;;;16.70;99.90;;;;;;5018123;28;20040;-90
2022/05/19 02:52:52;;;;;;;6.72;5.30;;;16.70;99.90;;;;;;5023516;28;20060;-90
2022/05/19 02:55:19;;;;;;;5.75;5.15;;;16.60;99.90;;;;;;5026663;28;20595;-90
2022/05/19 02:57:45;;;;;;;5.38;4.88;;;16.60;99.90;;;;;;5027359;28;20136;-91
2022/05/19 03:00:14;;;;;;;8.45;5.50;;;16.50;99.90;;;;;;5020915;28;20128;-90
2022/05/19 03:02:44;;;;;;;7.70;5.47;;;16.50;99.90;;;;;;5026036;28;20032;-90
2022/05/19 03:05:12;;;;;;;6.07;5.47;;;16.50;99.90;;;;;;5022756;28;20120;-90
2022/05/19 03:07:38;;;;;;;6.05;5.32;;;16.50;99.90;;;;;;5026435;28;20031;-90
2022/05/19 03:10:05;;;;;;;8.25;5.70;;;16.60;99.90;;;;;;5022963;28;20226;-91
2022/05/19 03:12:31;;;;;;;7.03;5.05;;;16.60;99.90;;;;;;5030415;28;20238;-91
2022/05/19 03:14:57;;;;;;;5.07;4.65;;;16.60;99.90;;;;;;5022190;28;20037;-90
2022/05/19 03:17:23;;;;;;;6.57;4.55;;;16.60;99.90;;;;;;5026310;28;20485;-91
2022/05/19 03:19:52;;;;;;;4.88;4.38;;;16.60;99.90;;;;;;5020065;28;20450;-90
2022/05/19 03:22:18;;;;;;;5.38;4.20;;;16.60;99.90;;;;;;5023073;28;20398;-90
2022/05/19 03:24:44;;;;;;;5.68;4.32;;;16.60;99.90;;;;;;5021140;28;20683;-89
2022/05/19 03:27:09;;;;;;;6.28;4.28;;;16.60;99.90;;;;;;5026194;28;20029;-89
2022/05/19 03:29:35;;;;;;;7.85;4.38;;;16.60;99.90;;;;;;5021474;28;20543;-89
2022/05/19 03:32:01;;;;;;;4.60;4.13;;;16.60;99.90;;;;;;5025129;28;20544;-89
2022/05/19 03:34:26;;;;;;;5.50;3.80;;;16.60;99.90;;;;;;5022315;28;20329;-89
2022/05/19 03:36:52;;;;;;;4.38;3.97;;;16.50;99.90;;;;;;5024124;28;20083;-89
2022/05/19 03:39:18;;;;;;;5.20;4.70;;;16.50;99.90;;;;;;5022442;28;20043;-90
2022/05/19 03:41:44;;;;;;;5.07;4.32;;;16.50;99.90;;;;;;5021914;28;20556;-90
2022/05/19 03:44:10;;;;;;;7.47;4.78;;;16.50;99.90;;;;;;5024742;28;20035;-89
2022/05/19 03:46:36;;;;;;;4.80;4.30;;;16.60;99.90;;;;;;5023651;28;20389;-86
2022/05/19 03:49:03;;;;;;;4.95;4.13;;;16.60;99.90;;;;;;5022046;28;20037;-89
2022/05/19 03:51:32;;;;;;;5.10;4.28;;;16.60;99.90;;;;;;5024240;28;20090;-90
2022/05/19 03:53:58;;;;;;;5.30;4.70;;;16.60;99.90;;;;;;5022887;28;20249;-89
2022/05/19 03:56:24;;;;;;;6.03;4.30;;;16.70;99.90;;;;;;5021870;28;20044;-89
2022/05/19 03:58:50;;;;;;;6.30;4.15;;;16.70;99.90;;;;;;5021641;28;20212;-89
2022/05/19 04:01:17;;;;;;;6.20;4.30;;;16.70;99.90;;;;;;5017628;28;20835;-89
2022/05/19 04:03:43;;;;;;;4.85;4.30;;;16.80;99.90;;;;;;5019960;28;20037;-88
2022/05/19 04:06:09;;;;;;;4.47;4.07;;;16.80;99.90;;;;;;5023730;28;20623;-89
2022/05/19 04:08:34;;;;;;;4.75;3.85;;;16.80;99.90;;;;;;5019687;28;20037;-90
2022/05/19 04:11:01;;;;;;;4.75;4.30;;;16.90;99.90;;;;;;5024520;28;20508;-90
2022/05/19 04:13:26;;;;;;;6.65;5.28;;;16.90;99.90;;;;;;5022536;28;20025;-90
2022/05/19 04:15:52;;;;;;;5.35;4.55;;;16.80;99.90;;;;;;5024662;28;20054;-89
2022/05/19 04:18:18;;;;;;;6.18;4.82;;;16.90;99.90;;;;;;5023422;28;20029;-89
2022/05/19 04:20:44;;;;;;;7.65;4.70;;;16.90;99.90;;;;;;5022364;28;20022;-89
2022/05/19 04:23:10;;;;;;;6.93;4.50;;;17.10;99.90;;;;;;5022670;28;20175;-83
2022/05/19 04:25:36;;;;;;;7.15;4.63;;;17.40;99.90;;;;;;5024341;28;20093;-83
2022/05/19 04:28:02;;;;;;;5.80;3.97;;;17.90;99.90;;;;;;5016092;28;20045;-82
2022/05/19 04:30:28;;;;;;;6.05;4.10;;;18.50;99.90;;;;;;5004462;28;20065;-82
2022/05/19 04:32:54;;;;;;;5.15;3.70;;;19.00;99.90;;;;;;5005776;28;20128;-82
2022/05/19 04:35:20;;;;;;;5.20;3.83;;;19.10;99.90;;;;;;4995970;28;20048;-82
2022/05/19 04:37:47;;;;;;;5.93;4.05;;;18.90;99.90;;;;;;5007545;28;20041;-82
2022/05/19 04:40:14;;;;;;;5.05;4.13;;;18.70;99.90;;;;;;5005920;28;20121;-82
2022/05/19 04:42:40;;;;;;;5.93;4.40;;;18.50;99.90;;;;;;5004228;28;20084;-82
2022/05/19 04:45:07;;;;;;;4.88;4.30;;;18.50;99.90;;;;;;5006855;28;20095;-81
2022/05/19 04:47:33;;;;;;;5.68;4.55;;;18.40;99.90;;;;;;5006517;28;20034;-80
2022/05/19 04:49:58;;;;;;;6.03;4.40;;;18.40;99.90;;;;;;5003292;28;20044;-81
2022/05/19 04:52:24;;;;;;;6.88;4.35;;;18.40;99.90;;;;;;5009330;28;20035;-81
2022/05/19 04:54:50;;;;;;;5.40;4.30;;;18.40;99.90;;;;;;5007256;28;20053;-81
2022/05/19 04:57:16;;;;;;;5.88;4.15;;;18.50;99.90;;;;;;5003750;28;20055;-81
2022/05/19 04:59:42;;;;;;;5.47;4.05;;;18.50;99.90;;;;;;5000420;28;20025;-81
2022/05/19 05:02:10;;;;;;;4.72;4.15;;;18.50;99.90;;;;;;5007993;28;20571;-81
2022/05/19 05:04:36;;;;;;;7.50;3.97;;;18.60;99.90;;;;;;5012103;28;20087;-82
2022/05/19 05:07:02;;;;;;;4.47;3.83;;;18.60;99.90;;;;;;5010145;28;20041;-81
2022/05/19 05:09:27;;;;;;;5.57;3.67;;;18.70;99.90;;;;;;5009144;28;20056;-81
2022/05/19 05:11:53;;;;;;;4.45;3.75;;;18.70;99.90;;;;;;5011792;28;20120;-82
2022/05/19 05:14:19;;;;;;;4.70;4.03;;;18.70;99.90;;;;;;5010213;28;20029;-81
2022/05/19 05:16:50;;;;;;;4.85;4.20;;;18.80;99.90;;;;;;5007342;28;20119;-82
2022/05/19 05:19:19;;;;;;;4.38;4.00;;;18.80;99.90;;;;;;5008165;28;21026;-81
2022/05/19 05:21:48;;;;;;;5.28;4.10;;;18.90;99.90;;;;;;5005391;28;20116;-81
2022/05/19 05:24:14;;;;;;;6.60;4.20;;;18.90;99.90;;;;;;5007472;28;20049;-81
2022/05/19 05:26:40;;;;;;;5.05;3.92;;;19.00;99.90;;;;;;5007997;28;20025;-82
2022/05/19 05:29:06;;;;;;;5.60;3.30;;;19.00;99.90;;;;;;5005233;28;20351;-81
2022/05/19 05:31:31;;;;;;;3.97;3.55;;;19.00;99.90;;;;;;4998965;28;20034;-81
2022/05/19 05:33:57;;;;;;;9.18;3.55;;;19.10;99.90;;;;;;5002284;28;20029;-80
2022/05/19 05:36:23;;;;;;;3.92;3.53;;;19.10;99.90;;;;;;5005294;28;20393;-80
2022/05/19 05:38:48;;;;;;;7.28;3.55;;;19.10;99.90;;;;;;5006458;28;20380;-80
2022/05/19 05:41:15;;;;;;;3.83;3.30;;;19.20;99.90;;;;;;5002977;28;20040;-80
2022/05/19 05:43:41;;;;;;;4.38;3.40;;;19.20;99.90;;;;;;5004232;28;20060;-80
2022/05/19 05:46:11;;;;;;;3.60;3.30;;;19.20;99.90;;;;;;5006864;28;20556;-80
2022/05/19 05:48:38;;;;;;;6.95;3.30;;;19.10;99.90;;;;;;5003737;28;20034;-80
2022/05/19 05:51:08;;;;;;;3.75;3.42;;;19.10;99.90;;;;;;5007108;28;20552;-80
2022/05/19 05:53:35;;;;;;;7.28;3.67;;;19.10;99.90;;;;;;5003716;28;20540;-80
2022/05/19 05:56:03;;;;;;;6.80;3.00;;;19.10;99.90;;;;;;5005296;28;20130;-80
2022/05/19 05:58:29;;;;;;;7.88;3.55;;;19.10;99.90;;;;;;5000597;28;20141;-80
2022/05/19 06:00:54;;;;;;;3.92;3.30;;;19.10;99.90;;;;;;5004661;28;20159;-80
2022/05/19 06:03:20;;;;;;;3.92;3.30;;;19.20;99.90;;;;;;5004617;28;20501;-81
2022/05/19 06:05:46;;;;;;;3.70;3.13;;;19.20;99.90;;;;;;5003934;28;20022;-80
2022/05/19 06:08:12;;;;;;;5.47;3.35;;;19.20;99.90;;;;;;5000692;28;20037;-80
2022/05/19 06:10:38;;;;;;;3.90;3.25;;;19.30;99.90;;;;;;5003083;28;20497;-80
2022/05/19 06:13:04;;;;;;;7.30;3.63;;;19.40;99.90;;;;;;5005139;28;20126;-80
2022/05/19 06:15:29;;;;;;;5.07;3.60;;;19.50;99.90;;;;;;5000255;28;20022;-80
2022/05/19 06:17:55;;;;;;;4.85;3.47;;;19.50;99.90;;;;;;5003705;28;20029;-80
2022/05/19 06:20:21;;;;;;;3.63;3.30;;;19.60;99.90;;;;;;5003363;28;20563;-81
2022/05/19 06:22:47;;;;;;;4.65;3.58;;;19.60;99.90;;;;;;5007882;28;20044;-81
2022/05/19 06:25:18;;;;;;;5.60;2.90;;;19.70;99.90;;;;;;5006544;28;20045;-80
2022/05/19 06:27:44;;;;;;;5.53;3.00;;;19.70;99.90;;;;;;5006915;28;20041;-80
2022/05/19 06:30:12;;;;;;;4.22;2.90;;;19.70;99.90;;;;;;5024104;28;20120;-80
2022/05/19 06:32:39;;;;;;;4.10;3.10;;;19.80;99.90;;;;;;5026415;28;20036;-80
2022/05/19 06:35:06;;;;;;;4.57;3.00;;;19.80;99.90;;;;;;5018131;28;20032;-80
2022/05/19 06:37:32;;;;;;;4.32;3.40;;;19.90;99.90;;;;;;5019538;28;20044;-80
2022/05/19 06:39:57;;;;;;;6.25;3.10;;;20.00;99.90;;;;;;5021693;28;20060;-80
2022/05/19 06:42:23;;;;;;;3.85;2.95;;;20.10;99.90;;;;;;5022768;28;20095;-80
2022/05/19 06:44:48;;;;;;;3.78;2.92;;;20.30;99.90;;;;;;5023666;28;20033;-80
2022/05/19 06:47:14;;;;;;;6.28;3.20;;;20.50;99.90;;;;;;5023189;28;20703;-80
2022/05/19 06:49:42;;;;;;;6.10;2.80;;;20.80;99.90;;;;;;5021198;28;20037;-80
2022/05/19 06:52:13;;;;;;;8.40;5.38;;;21.00;99.90;;;;;;5024657;28;20031;-80
2022/05/19 06:54:40;;;;;;;4.97;3.55;;;21.20;99.90;;;;;;5024130;28;20246;-80
2022/05/19 06:57:06;;;;;;;5.57;2.70;;;21.50;99.90;;;;;;5025111;28;20041;-80
2022/05/19 06:59:31;;;;;;;5.28;2.63;;;21.70;99.90;;;;;;5020650;28;20017;-80
2022/05/19 07:01:57;;;;;;;4.63;2.47;;;21.90;99.90;;;;;;5026397;28;20045;-80
2022/05/19 07:04:23;;;;;;;4.30;2.67;;;22.10;99.90;;;;;;5022400;28;20432;-80
2022/05/19 07:06:48;;;;;;;6.82;2.85;;;22.40;99.90;;;;;;5023844;28;20056;-80
2022/05/19 07:09:14;;;;;;;5.57;2.58;;;22.50;99.90;;;;;;5022928;28;20044;-79
2022/05/19 07:11:40;;;;;;;3.30;2.20;;;22.80;99.90;;;;;;5022201;28;20040;-80
2022/05/19 07:14:07;;;;;;;3.67;2.35;;;23.00;99.90;;;;;;5025764;28;20077;-80
2022/05/19 07:16:34;;;;;;;3.42;2.13;;;23.10;97.90;;;;;;5019927;28;20122;-80
2022/05/19 07:21:46;;;;;;;4.93;2.30;;;23.50;99.10;;;;;;5026017;28;20044;-80
2022/05/19 07:24:17;;;;;;;4.57;2.28;;;23.60;95.80;;;;;;5025307;28;20028;-77
2022/05/19 07:26:45;;;;;;;3.78;1.98;;;23.70;95.00;;;;;;5020473;28;20029;-76
2022/05/19 07:29:10;;;;;;;4.47;2.25;;;23.80;97.20;;;;;;5007504;28;20509;-80
2022/05/19 07:31:36;;;;;;;3.85;2.50;;;23.80;95.70;;;;;;5005091;28;20052;-81
2022/05/19 07:34:04;;;;;;;4.72;2.47;;;23.90;94.30;;;;;;5004496;28;20080;-79
2022/05/19 07:36:30;;;;;;;3.88;2.30;;;24.00;94.40;;;;;;5005004;28;20478;-78
2022/05/19 07:38:56;;;;;;;3.95;2.53;;;24.10;92.80;;;;;;4998083;28;20321;-76
2022/05/19 07:41:22;;;;;;;3.35;2.60;;;24.40;92.30;;;;;;5004137;28;20575;-78
2022/05/19 07:43:48;;;;;;;5.63;2.60;;;24.40;92.60;;;;;;5005705;28;20034;-79
2022/05/19 07:46:14;;;;;;;4.78;2.60;;;24.40;92.80;;;;;;5004175;28;20029;-79
2022/05/19 07:48:39;;;;;;;4.03;2.50;;;24.60;92.60;;;;;;5001811;28;20037;-79
2022/05/19 07:51:05;;;;;;;4.47;2.50;;;24.60;91.60;;;;;;5003259;28;20385;-79
2022/05/19 07:53:31;;;;;;;6.68;2.72;;;24.50;91.00;;;;;;5004621;28;20431;-79
2022/05/19 07:55:57;;;;;;;3.70;2.25;;;24.70;91.50;;;;;;5004437;28;20765;-79
2022/05/19 07:58:23;;;;;;;2.72;2.45;;;24.80;90.80;;;;;;5003852;28;20061;-79
2022/05/19 08:00:51;;;;;;;2.40;2.20;;;25.00;91.50;;;;;;5002640;28;20037;-79
2022/05/19 08:03:17;;;;;;;6.00;2.72;;;25.00;91.20;;;;;;5004887;28;20017;-79
2022/05/19 08:05:42;;;;;;;3.83;2.60;;;25.10;91.30;;;;;;5004371;28;20317;-78
2022/05/19 08:08:08;;;;;;;3.25;2.22;;;25.20;90.60;;;;;;5001361;28;20507;-78
2022/05/19 08:10:34;;;;;;;5.70;2.40;;;25.30;90.20;;;;;;5005204;28;20041;-78
2022/05/19 08:15:46;;;;;;;5.65;2.60;;;25.40;90.40;;;;;;5003991;28;20098;-78
2022/05/19 08:18:23;;;;;;;3.28;2.05;;;25.50;90.80;;;;;;5000911;28;20029;-78
2022/05/19 08:20:57;;;;;;;4.95;2.30;;;25.40;85.90;;;;;;5006069;28;20057;-78
2022/05/19 08:23:34;;;;;;;2.88;2.13;;;25.50;90.00;;;;;;5003233;28;20037;-78
2022/05/19 08:26:01;;;;;;;3.85;2.53;;;25.60;90.40;;;;;;5004213;28;20044;-78
2022/05/19 08:28:30;;;;;;;7.90;2.60;;;25.70;89.10;;;;;;5003887;28;20427;-78
2022/05/19 08:31:05;;;;;;;3.58;2.33;;;25.80;86.10;;;;;;5004935;28;20576;-79
2022/05/19 08:33:32;;;;;;;4.38;2.33;;;25.80;86.40;;;;;;5009642;28;20029;-78
2022/05/19 08:35:58;;;;;;;4.90;2.60;;;25.80;84.50;;;;;;5008008;28;20049;-78
2022/05/19 08:38:24;;;;;;;10.32;2.47;;;26.00;86.30;;;;;;5006780;28;20116;-78
2022/05/19 08:40:59;;;;;;;4.38;2.50;;;25.90;83.10;;;;;;5009208;28;20037;-78
2022/05/19 08:43:30;;;;;;;3.47;2.25;;;25.80;84.90;;;;;;5010249;28;20041;-79
2022/05/19 08:46:01;;;;;;;5.82;2.67;;;25.90;85.00;;;;;;5006623;28;20037;-79
2022/05/19 08:48:28;;;;;;;4.95;2.70;;;25.90;84.90;;;;;;5006276;28;20056;-78
2022/05/19 08:50:59;;;;;;;4.53;2.30;;;25.90;85.10;;;;;;5007028;28;20048;-79
2022/05/19 08:53:32;;;;;;;4.32;2.55;;;25.80;83.50;;;;;;5007535;28;20025;-79
2022/05/19 08:56:20;;;;;;;6.90;2.58;;;25.80;84.60;;;;;;5007133;28;20130;-79
2022/05/19 08:59:24;;;;;;;5.57;2.38;;;25.70;84.60;;;;;;5001705;28;20045;-79
2022/05/19 09:01:52;;;;;;;;;;;25.90;93.30;;;;;;5003815;28;20123;-82
2022/05/19 09:04:32;;;;;;;5.43;2.30;;;26.00;93.60;;;;;;5003016;28;19920;-77
2022/05/19 09:10:28;;;;;;;5.75;2.50;;;26.30;90.70;;;;;;5006248;28;20535;-80
2022/05/19 09:13:16;;;;;;;5.55;2.35;;;26.40;90.30;;;;;;5007599;28;20072;-80
2022/05/19 09:15:43;;;;;;;3.40;2.20;;;26.50;89.10;;;;;;5009858;28;20028;-83
2022/05/19 09:18:11;;;;;;;5.88;2.33;;;26.80;88.20;;;;;;5005663;28;20115;-79
2022/05/19 09:20:51;;;;;;;4.78;2.20;;;26.80;84.60;;;;;;5005784;28;20516;-80
2022/05/19 09:23:17;;;;;;;4.88;2.10;;;26.90;83.90;;;;;;5006096;28;20052;-80
2022/05/19 09:25:54;;;;;;;2.92;2.15;;;27.00;83.70;;;;;;5006857;28;20477;-78
2022/05/19 09:28:20;;;;;;;5.20;2.30;;;27.00;80.80;;;;;;5004233;28;20389;-78
2022/05/19 09:30:50;;;;;;;7.00;2.13;;;27.10;80.50;;;;;;5004473;28;20029;-79
2022/05/19 09:33:18;;;;;;;4.28;2.10;;;27.20;82.70;;;;;;5003474;28;20095;-81
2022/05/19 09:36:11;;;;;;;5.22;1.88;;;27.30;80.10;;;;;;5003903;28;20036;-80
2022/05/19 09:38:49;;;;;;;6.15;1.90;;;27.50;80.40;;;;;;5005849;28;20097;-80
2022/05/19 09:41:30;;;;;;;4.75;1.77;;;27.60;78.20;;;;;;5003361;28;20030;-79
2022/05/19 09:43:58;;;;;;;3.25;1.60;;;27.60;78.90;;;;;;5009103;28;20434;-78
2022/05/19 09:46:30;;;;;;;7.05;2.00;;;27.80;76.20;;;;;;5000281;28;20057;-75
2022/05/19 09:49:01;;;;;;;5.90;1.70;;;27.70;74.20;;;;;;5003950;28;20612;-78
2022/05/19 09:51:38;;;;;;;9.10;1.80;;;27.70;73.60;;;;;;5006488;28;20029;-78
2022/05/19 09:54:04;;;;;;;4.75;1.70;;;27.70;71.80;;;;;;5004564;28;20044;-78
2022/05/19 09:56:43;;;;;;;3.08;1.70;;;27.80;73.80;;;;;;5004096;28;20486;-78
2022/05/19 09:59:19;;;;;;;4.47;1.58;;;28.00;75.00;;;;;;5000047;28;20041;-78
2022/05/19 10:01:47;;;;;;;2.67;1.48;;;28.20;71.60;;;;;;5003971;28;20575;-78
2022/05/19 10:04:25;;;;;;;4.35;1.70;;;28.20;68.30;;;;;;5000751;28;20041;-78
2022/05/19 10:06:54;;;;;;;2.70;1.50;;;28.30;67.90;;;;;;5003239;28;20211;-78
2022/05/19 10:09:30;;;;;;;4.38;1.50;;;28.30;63.80;;;;;;4998126;28;20033;-78
2022/05/19 10:12:08;;;;;;;5.00;1.40;;;28.30;58.40;;;;;;5004626;28;20021;-78
2022/05/19 10:14:35;;;;;;;4.43;1.40;;;28.30;58.10;;;;;;5005045;28;20078;-78
2022/05/19 10:17:00;;;;;;;7.90;1.50;;;28.20;57.70;;;;;;5003346;28;20029;-78
2022/05/19 10:19:37;;;;;;;3.63;1.33;;;28.10;57.70;;;;;;5003653;28;20444;-78
2022/05/19 10:22:30;;;;;;;2.97;1.20;;;28.10;59.70;;;;;;5007498;28;20082;-78
2022/05/19 10:25:13;;;;;;;;;;;28.10;59.70;;;;;;5005190;28;20064;-78
2022/05/19 10:31:40;;;;;;;2.58;1.20;;;28.30;58.40;;;;;;5025549;28;20051;-78
2022/05/19 10:34:28;;;;;;;3.15;1.17;;;28.50;57.50;;;;;;5016679;28;20135;-78
2022/05/19 10:37:14;;;;;;;3.28;1.45;;;28.70;56.90;;;;;;5025799;28;20040;-78
2022/05/19 10:39:46;;;;;;;4.90;1.20;;;28.70;57.30;;;;;;5021461;28;20079;-78
2022/05/19 10:42:42;;;;;;;5.55;1.05;;;28.90;57.00;;;;;;5026245;28;20035;-78
2022/05/19 10:45:39;;;;;;;4.32;1.15;;;29.10;55.00;;;;;;5025570;28;20032;-77
2022/05/19 10:48:27;;;;;;;3.13;1.20;;;29.20;56.40;;;;;;5020060;28;20068;-75
2022/05/19 10:51:05;;;;;;;3.05;0.95;;;29.40;55.20;;;;;;5023279;28;20033;-78
2022/05/19 10:53:51;;;;;;;3.50;1.00;;;29.50;55.60;;;;;;5024071;28;20037;-77
2022/05/19 10:56:48;;;;;;;3.92;0.90;;;29.60;54.50;;;;;;5025533;28;20036;-78
2022/05/19 10:59:25;;;;;;;1.50;0.98;;;29.60;54.10;;;;;;4998868;28;20560;-78
2022/05/19 11:01:54;;;;;;;2.65;0.85;;;29.60;53.70;;;;;;5025211;28;20033;-78
2022/05/19 11:04:20;;;;;;;3.20;1.00;;;29.40;53.10;;;;;;5022436;28;20487;-78
2022/05/19 11:06:57;;;;;;;3.55;1.00;;;29.10;53.40;;;;;;5024325;28;20040;-78
2022/05/19 11:09:57;;;;;;;1.52;1.00;;;29.00;54.90;;;;;;5021908;28;22096;-78
2022/05/19 11:12:35;;;;;;;1.77;0.90;;;28.90;53.70;;;;;;4973408;28;20484;-78
2022/05/19 11:15:15;;;;;;;2.80;1.00;;;29.00;54.70;;;;;;5023182;28;20432;-78
2022/05/19 11:18:10;;;;;;;1.65;1.00;;;29.00;54.10;;;;;;5023995;28;20044;-78
2022/05/19 11:21:03;;;;;;;5.80;1.10;;;29.00;55.90;;;;;;5024112;28;20025;-78
2022/05/19 11:24:00;;;;;;;2.07;1.00;;;29.00;54.50;;;;;;5023362;28;20033;-78
2022/05/19 11:26:29;;;;;;;4.47;0.90;;;29.00;55.00;;;;;;5025639;28;20228;-78
2022/05/19 11:29:20;;;;;;;3.30;0.90;;;29.00;53.40;;;;;;5024015;28;20520;-78
2022/05/19 11:31:54;;;;;;;4.22;1.00;;;29.00;55.20;;;;;;5024233;28;20044;-77
2022/05/19 11:34:35;;;;;;;1.20;0.70;;;28.80;55.10;;;;;;5022266;28;20452;-77
2022/05/19 11:37:16;;;;;;;2.45;0.80;;;28.80;55.50;;;;;;5022811;28;20493;-77
2022/05/19 11:39:54;;;;;;;2.67;0.80;;;28.70;54.70;;;;;;5021973;28;20032;-77
2022/05/19 11:42:30;;;;;;;4.78;1.00;;;28.60;55.40;;;;;;5022969;28;20064;-77
2022/05/19 11:44:56;;;;;;;2.78;1.15;;;28.60;55.10;;;;;;5022527;28;20041;-77
2022/05/19 11:56:11;;;;;;;1.75;1.05;;;28.50;55.80;;;;;;5023792;28;20052;-77
2022/05/19 11:58:38;;;;;;;4.43;1.17;;;28.50;56.40;;;;;;5024185;28;20051;-77
2022/05/19 12:01:13;;;;;;;5.85;1.38;;;28.40;56.30;;;;;;5021605;28;20158;-77
2022/05/19 12:03:57;;;;;;;4.55;1.48;;;28.50;57.30;;;;;;5024243;28;20025;-77
2022/05/19 12:06:43;;;;;;;;;;;28.70;56.00;;;;;;5026326;28;20666;-77
2022/05/19 12:09:33;;;;;;;7.05;1.60;;;29.00;56.60;;;;;;5027196;28;20006;-77
2022/05/19 12:12:01;;;;;;;2.28;1.10;;;29.20;56.90;;;;;;5028675;28;20037;-78
2022/05/19 12:14:27;;;;;;;3.22;1.20;;;29.30;57.20;;;;;;5027232;28;20025;-78
2022/05/19 12:17:03;;;;;;;3.42;1.05;;;29.40;56.00;;;;;;5029676;28;20529;-77
2022/05/19 12:19:37;;;;;;;1.40;1.13;;;29.50;56.70;;;;;;5024954;28;20350;-78
2022/05/19 12:22:05;;;;;;;2.47;1.00;;;29.60;55.20;;;;;;5026384;28;20037;-77
2022/05/19 12:24:37;;;;;;;3.90;1.10;;;29.60;55.20;;;;;;5030445;28;20903;-78
2022/05/19 12:27:16;;;;;;;4.75;0.90;;;29.70;56.00;;;;;;5026954;28;20041;-78
2022/05/19 12:33:24;;;;;;;3.13;2.00;;;29.90;55.50;;;;;;5005247;28;20103;-78
2022/05/19 12:35:55;;;;;;;4.90;2.10;;;30.10;55.90;;;;;;5004909;28;20030;-77
2022/05/19 12:38:30;;;;;;;5.70;3.15;;;30.20;54.10;;;;;;5005717;28;20603;-78
2022/05/19 12:41:00;;;;;;;3.92;2.55;;;30.10;54.10;;;;;;5003929;28;20341;-77
2022/05/19 12:43:43;;;;;;;4.05;2.03;;;30.10;54.20;;;;;;5005021;28;20037;-77
2022/05/19 12:46:10;;;;;;;;;;;30.10;54.60;;;;;;5007989;28;20037;-77
2022/05/19 12:48:35;;;;;;;6.03;1.20;;;30.00;54.00;;;;;;5003415;28;19917;-77
2022/05/19 12:51:14;;;;;;;2.80;1.17;;;30.00;54.90;;;;;;5006280;28;20033;-77
2022/05/19 12:53:52;;;;;;;10.30;1.27;;;30.10;54.20;;;;;;5007538;28;20108;-78
2022/05/19 12:56:46;;;;;;;2.92;1.05;;;30.20;56.00;;;;;;5005235;28;20032;-78
2022/05/19 12:59:49;;;;;;;1.73;1.00;;;30.40;54.60;;;;;;5006220;28;20025;-77
2022/05/19 13:02:28;;;;;;;3.03;1.10;;;30.50;53.90;;;;;;4928024;28;20097;-77
2022/05/19 13:05:25;;;;;;;6.43;1.02;;;30.50;54.20;;;;;;5000465;28;20644;-77
2022/05/19 13:08:08;;;;;;;2.25;1.00;;;30.40;54.00;;;;;;4991813;28;20109;-77
2022/05/19 13:10:39;;;;;;;4.03;0.98;;;30.20;54.30;;;;;;5000989;28;20048;-77
2022/05/19 13:13:30;;;;;;;4.63;1.20;;;30.30;55.30;;;;;;5006058;28;20087;-77
2022/05/19 13:15:57;;;;;;;2.63;1.08;;;30.30;54.80;;;;;;5004621;28;20045;-77
2022/05/19 13:18:31;;;;;;;2.58;1.08;;;30.40;54.20;;;;;;5003306;28;20369;-77
2022/05/19 13:21:37;;;;;;;5.68;1.05;;;30.60;55.30;;;;;;5005180;28;20040;-77
2022/05/19 13:24:06;;;;;;;1.70;1.00;;;30.80;54.30;;;;;;5004738;28;20176;-77
2022/05/19 13:26:35;;;;;;;4.10;1.00;;;30.80;54.80;;;;;;5006876;28;20390;-77
2022/05/19 13:32:12;;;;;;;2.08;0.88;;;30.90;55.60;;;;;;5005115;28;20147;-77
2022/05/19 13:34:53;;;;;;;2.90;0.90;;;31.00;54.90;;;;;;5005739;28;20034;-77
2022/05/19 13:37:33;;;;;;;1.98;1.00;;;31.00;54.70;;;;;;5006173;28;20152;-76